sensor_id;sensor_type;location;lat;lon;timestamp;pressure;altitude;pressure_sealevel;temperature;humidity
12963;BME280;6546;49.882;8.666;2023-02-02T00:01:41;100355.38;;;7.09;100.00
12963;BME280;6546;49.882;8.666;2023-02-02T00:04:14;100347.56;;;7.05;100.00
12963;BME280;6546;49.882;8.666;2023-02-02T00:06:41;100348.53;;;7.10;100.00
12963;BME280;6546;49.882;8.666;2023-02-02T00:09:08;100345.94;;;7.08;100.00
12963;BME280;6546;49.882;8.666;2023-02-02T00:11:35;100341.72;;;7.12;100.00
12963;BME280;6546;49.882;8.666;2023-02-02T00:14:04;100344.28;;;7.12;100.00
12963;BME280;6546;49.882;8.666;2023-02-02T00:16:40;100356.03;;;7.00;100.00
12963;BME280;6546;49.882;8.666;2023-02-02T00:19:09;100352.63;;;7.02;100.00
12963;BME280;6546;49.882;8.666;2023-02-02T00:21:36;100347.66;;;7.09;100.00
12963;BME280;6546;49.882;8.666;2023-02-02T00:24:04;100350.28;;;7.11;100.00
12963;BME280;6546;49.882;8.666;2023-02-02T00:26:31;100350.19;;;7.08;100.00
12963;BME280;6546;49.882;8.666;2023-02-02T00:28:57;100360.44;;;7.05;100.00
12963;BME280;6546;49.882;8.666;2023-02-02T00:31:25;100359.66;;;7.09;100.00
12963;BME280;6546;49.882;8.666;2023-02-02T00:33:52;100348.53;;;7.10;100.00
12963;BME280;6546;49.882;8.666;2023-02-02T00:36:20;100359.00;;;7.17;100.00
12963;BME280;6546;49.882;8.666;2023-02-02T00:38:47;100351.09;;;7.10;100.00
12963;BME280;6546;49.882;8.666;2023-02-02T00:41:14;100345.13;;;7.11;100.00
12963;BME280;6546;49.882;8.666;2023-02-02T00:43:41;100345.19;;;7.12;100.00
12963;BME280;6546;49.882;8.666;2023-02-02T00:46:09;100346.94;;;7.15;100.00
12963;BME280;6546;49.882;8.666;2023-02-02T00:48:39;100343.59;;;7.19;100.00
12963;BME280;6546;49.882;8.666;2023-02-02T00:51:06;100340.91;;;7.13;100.00
12963;BME280;6546;49.882;8.666;2023-02-02T00:53:32;100345.13;;;7.11;100.00
12963;BME280;6546;49.882;8.666;2023-02-02T00:55:59;100337.47;;;7.12;100.00
12963;BME280;6546;49.882;8.666;2023-02-02T00:58:25;100339.31;;;7.19;100.00
12963;BME280;6546;49.882;8.666;2023-02-02T01:00:52;100333.38;;;7.22;100.00
12963;BME280;6546;49.882;8.666;2023-02-02T01:03:18;100339.41;;;7.24;100.00
12963;BME280;6546;49.882;8.666;2023-02-02T01:05:46;100342.94;;;7.28;100.00
12963;BME280;6546;49.882;8.666;2023-02-02T01:08:14;100348.91;;;7.25;100.00
12963;BME280;6546;49.882;8.666;2023-02-02T01:10:41;100345.63;;;7.32;100.00
12963;BME280;6546;49.882;8.666;2023-02-02T01:13:07;100348.28;;;7.35;100.00
12963;BME280;6546;49.882;8.666;2023-02-02T01:15:34;100343.75;;;7.25;100.00
12963;BME280;6546;49.882;8.666;2023-02-02T01:18:01;100342.94;;;7.28;100.00
12963;BME280;6546;49.882;8.666;2023-02-02T01:20:28;100348.16;;;7.31;100.00
12963;BME280;6546;49.882;8.666;2023-02-02T01:22:57;100344.81;;;7.33;100.00
12963;BME280;6546;49.882;8.666;2023-02-02T01:25:23;100349.13;;;7.34;100.00
12963;BME280;6546;49.882;8.666;2023-02-02T01:27:51;100349.13;;;7.34;100.00
12963;BME280;6546;49.882;8.666;2023-02-02T01:30:18;100348.28;;;7.35;100.00
12963;BME280;6546;49.882;8.666;2023-02-02T01:32:45;100348.38;;;7.40;100.00
12963;BME280;6546;49.882;8.666;2023-02-02T01:35:11;100346.75;;;7.43;100.00
12963;BME280;6546;49.882;8.666;2023-02-02T01:37:38;100350.91;;;7.38;100.00
12963;BME280;6546;49.882;8.666;2023-02-02T01:40:07;100351.78;;;7.39;100.00
12963;BME280;6546;49.882;8.666;2023-02-02T01:42:34;100367.06;;;7.33;100.00
12963;BME280;6546;49.882;8.666;2023-02-02T01:45:13;100365.41;;;7.33;100.00
12963;BME280;6546;49.882;8.666;2023-02-02T01:47:45;100365.50;;;7.38;100.00
12963;BME280;6546;49.882;8.666;2023-02-02T01:50:14;100373.03;;;7.30;100.00
12963;BME280;6546;49.882;8.666;2023-02-02T01:52:44;100365.25;;;7.27;100.00
12963;BME280;6546;49.882;8.666;2023-02-02T01:55:14;100366.84;;;7.22;100.00
12963;BME280;6546;49.882;8.666;2023-02-02T01:57:45;100365.25;;;7.29;100.00
12963;BME280;6546;49.882;8.666;2023-02-02T02:00:19;100374.56;;;7.22;100.00
12963;BME280;6546;49.882;8.666;2023-02-02T02:02:51;100371.16;;;7.23;100.00
12963;BME280;6546;49.882;8.666;2023-02-02T02:05:23;100364.25;;;7.22;100.00
12963;BME280;6546;49.882;8.666;2023-02-02T02:07:52;100366.47;;;7.07;100.00
12963;BME280;6546;49.882;8.666;2023-02-02T02:10:21;100359.84;;;7.16;100.00
12963;BME280;6546;49.882;8.666;2023-02-02T02:12:47;100366.66;;;7.14;100.00
12963;BME280;6546;49.882;8.666;2023-02-02T02:15:14;100362.38;;;7.15;100.00
12963;BME280;6546;49.882;8.666;2023-02-02T02:18:05;100355.50;;;7.14;100.00
12963;BME280;6546;49.882;8.666;2023-02-02T02:20:47;100365.25;;;7.27;100.00
12963;BME280;6546;49.882;8.666;2023-02-02T02:27:19;100360.56;;;7.11;100.00
12963;BME280;6546;49.882;8.666;2023-02-02T02:30:11;100363.03;;;7.06;100.00
12963;BME280;6546;49.882;8.666;2023-02-02T02:32:48;100358.75;;;7.07;100.00
12963;BME280;6546;49.882;8.666;2023-02-02T02:35:25;100355.41;;;7.11;100.00
12963;BME280;6546;49.882;8.666;2023-02-02T02:37:59;100353.81;;;7.16;100.00
12963;BME280;6546;49.882;8.666;2023-02-02T02:40:32;100364.06;;;7.13;100.00
12963;BME280;6546;49.882;8.666;2023-02-02T02:43:03;100357.97;;;7.11;100.00
12963;BME280;6546;49.882;8.666;2023-02-02T02:45:32;100362.28;;;7.12;100.00
12963;BME280;6546;49.882;8.666;2023-02-02T02:48:01;100359.59;;;7.07;100.00
12963;BME280;6546;49.882;8.666;2023-02-02T02:50:28;100363.13;;;7.11;100.00
12963;BME280;6546;49.882;8.666;2023-02-02T02:52:59;100359.72;;;7.12;100.00
12963;BME280;6546;49.882;8.666;2023-02-02T02:55:39;100361.31;;;7.07;100.00
12963;BME280;6546;49.882;8.666;2023-02-02T02:58:12;100353.59;;;7.07;100.00
12963;BME280;6546;49.882;8.666;2023-02-02T03:00:50;100360.47;;;7.08;100.00
12963;BME280;6546;49.882;8.666;2023-02-02T03:03:29;100357.22;;;7.15;100.00
12963;BME280;6546;49.882;8.666;2023-02-02T03:06:08;100350.44;;;7.17;100.00
12963;BME280;6546;49.882;8.666;2023-02-02T03:08:38;100354.72;;;7.18;100.00
12963;BME280;6546;49.882;8.666;2023-02-02T03:11:07;100351.25;;;7.16;100.00
12963;BME280;6546;49.882;8.666;2023-02-02T03:13:36;100347.69;;;7.11;100.00
12963;BME280;6546;49.882;8.666;2023-02-02T03:16:03;100355.59;;;7.18;100.00
12963;BME280;6546;49.882;8.666;2023-02-02T03:18:31;100350.38;;;7.15;100.00
12963;BME280;6546;49.882;8.666;2023-02-02T03:21:03;100353.09;;;7.21;100.00
12963;BME280;6546;49.882;8.666;2023-02-02T03:23:34;100353.97;;;7.22;100.00
12963;BME280;6546;49.882;8.666;2023-02-02T03:26:00;100351.28;;;7.17;100.00
12963;BME280;6546;49.882;8.666;2023-02-02T03:28:28;100349.59;;;7.19;100.00
12963;BME280;6546;49.882;8.666;2023-02-02T03:30:56;100349.69;;;7.22;100.00
12963;BME280;6546;49.882;8.666;2023-02-02T03:33:24;100352.28;;;7.24;100.00
12963;BME280;6546;49.882;8.666;2023-02-02T03:35:52;100355.78;;;7.26;100.00
12963;BME280;6546;49.882;8.666;2023-02-02T03:38:18;100359.31;;;7.31;100.00
12963;BME280;6546;49.882;8.666;2023-02-02T03:40:45;100356.00;;;7.35;100.00
12963;BME280;6546;49.882;8.666;2023-02-02T03:43:12;100359.25;;;7.28;100.00
12963;BME280;6546;49.882;8.666;2023-02-02T03:45:38;100361.06;;;7.32;100.00
12963;BME280;6546;49.882;8.666;2023-02-02T03:48:06;100348.25;;;7.34;100.00
12963;BME280;6546;49.882;8.666;2023-02-02T03:50:32;100351.72;;;7.37;100.00
12963;BME280;6546;49.882;8.666;2023-02-02T03:53:00;100358.63;;;7.38;100.00
12963;BME280;6546;49.882;8.666;2023-02-02T03:55:27;100351.88;;;7.43;100.00
12963;BME280;6546;49.882;8.666;2023-02-02T03:57:53;100349.22;;;7.40;100.00
12963;BME280;6546;49.882;8.666;2023-02-02T04:00:20;100362.25;;;7.46;100.00
12963;BME280;6546;49.882;8.666;2023-02-02T04:02:47;100351.88;;;7.43;100.00
12963;BME280;6546;49.882;8.666;2023-02-02T04:05:14;100351.69;;;7.34;100.00
12963;BME280;6546;49.882;8.666;2023-02-02T04:07:41;100347.59;;;7.44;100.00
12963;BME280;6546;49.882;8.666;2023-02-02T04:10:10;100356.25;;;7.46;100.00
12963;BME280;6546;49.882;8.666;2023-02-02T04:12:37;100356.16;;;7.43;100.00
12963;BME280;6546;49.882;8.666;2023-02-02T04:15:04;100364.78;;;7.45;100.00
12963;BME280;6546;49.882;8.666;2023-02-02T04:17:31;100371.50;;;7.38;100.00
12963;BME280;6546;49.882;8.666;2023-02-02T04:19:57;100365.66;;;7.45;100.00
12963;BME280;6546;49.882;8.666;2023-02-02T04:22:24;100373.50;;;7.50;100.00
12963;BME280;6546;49.882;8.666;2023-02-02T04:24:51;100377.84;;;7.54;100.00
12963;BME280;6546;49.882;8.666;2023-02-02T04:27:19;100383.91;;;7.55;100.00
12963;BME280;6546;49.882;8.666;2023-02-02T04:29:46;100383.81;;;7.52;100.00
12963;BME280;6546;49.882;8.666;2023-02-02T04:32:13;100378.75;;;7.55;100.00
12963;BME280;6546;49.882;8.666;2023-02-02T04:34:40;100381.16;;;7.47;100.00
12963;BME280;6546;49.882;8.666;2023-02-02T04:37:06;100381.28;;;7.53;100.00
12963;BME280;6546;49.882;8.666;2023-02-02T04:39:33;100389.09;;;7.58;100.00
12963;BME280;6546;49.882;8.666;2023-02-02T04:42:00;100389.09;;;7.58;100.00
12963;BME280;6546;49.882;8.666;2023-02-02T04:44:28;100394.25;;;7.58;100.00
12963;BME280;6546;49.882;8.666;2023-02-02T04:46:54;100400.22;;;7.55;100.00
12963;BME280;6546;49.882;8.666;2023-02-02T04:49:21;100396.81;;;7.58;100.00
12963;BME280;6546;49.882;8.666;2023-02-02T04:51:48;100413.03;;;7.54;100.00
12963;BME280;6546;49.882;8.666;2023-02-02T04:54:15;100401.88;;;7.53;100.00
12963;BME280;6546;49.882;8.666;2023-02-02T04:56:42;100413.09;;;7.57;100.00
12963;BME280;6546;49.882;8.666;2023-02-02T04:59:09;100414.84;;;7.58;100.00
12963;BME280;6546;49.882;8.666;2023-02-02T05:01:36;100411.28;;;7.53;100.00
12963;BME280;6546;49.882;8.666;2023-02-02T05:04:03;100408.72;;;7.53;100.00
12963;BME280;6546;49.882;8.666;2023-02-02T05:06:30;100409.56;;;7.52;100.00
12963;BME280;6546;49.882;8.666;2023-02-02T05:08:56;100412.31;;;7.59;100.00
12963;BME280;6546;49.882;8.666;2023-02-02T05:11:24;100419.19;;;7.60;100.00
12963;BME280;6546;49.882;8.666;2023-02-02T05:14:00;100412.25;;;7.58;100.00
12963;BME280;6546;49.882;8.666;2023-02-02T05:16:27;100412.31;;;7.59;100.00
12963;BME280;6546;49.882;8.666;2023-02-02T05:18:55;100415.88;;;7.64;100.00
12963;BME280;6546;49.882;8.666;2023-02-02T05:21:29;100417.53;;;7.62;100.00
12963;BME280;6546;49.882;8.666;2023-02-02T05:23:56;100414.94;;;7.62;100.00
12963;BME280;6546;49.882;8.666;2023-02-02T05:26:25;100421.13;;;7.69;100.00
12963;BME280;6546;49.882;8.666;2023-02-02T05:28:52;100422.81;;;7.68;100.00
12963;BME280;6546;49.882;8.666;2023-02-02T05:31:19;100428.72;;;7.63;100.00
12963;BME280;6546;49.882;8.666;2023-02-02T05:33:46;100430.44;;;7.64;100.00
12963;BME280;6546;49.882;8.666;2023-02-02T05:36:14;100428.00;;;7.70;100.00
12963;BME280;6546;49.882;8.666;2023-02-02T05:38:40;100439.25;;;7.75;100.00
12963;BME280;6546;49.882;8.666;2023-02-02T05:41:07;100431.34;;;7.66;100.00
12963;BME280;6546;49.882;8.666;2023-02-02T05:43:34;100433.88;;;7.64;100.00
12963;BME280;6546;49.882;8.666;2023-02-02T05:46:01;100435.69;;;7.67;100.00
12963;BME280;6546;49.882;8.666;2023-02-02T05:48:27;100428.75;;;7.64;100.00
12963;BME280;6546;49.882;8.666;2023-02-02T05:50:58;100429.53;;;7.62;100.00
12963;BME280;6546;49.882;8.666;2023-02-02T05:53:28;100431.97;;;7.56;100.00
12963;BME280;6546;49.882;8.666;2023-02-02T05:55:55;100441.50;;;7.60;100.00
12963;BME280;6546;49.882;8.666;2023-02-02T05:58:21;100432.84;;;7.56;100.00
12963;BME280;6546;49.882;8.666;2023-02-02T06:00:48;100433.63;;;7.54;100.00
12963;BME280;6546;49.882;8.666;2023-02-02T06:03:15;100442.34;;;7.59;100.00
12963;BME280;6546;49.882;8.666;2023-02-02T06:05:41;100440.66;;;7.61;100.00
12963;BME280;6546;49.882;8.666;2023-02-02T06:08:08;100444.00;;;7.57;100.00
12963;BME280;6546;49.882;8.666;2023-02-02T06:10:38;100444.94;;;7.59;100.00
12963;BME280;6546;49.882;8.666;2023-02-02T06:13:05;100446.50;;;7.54;100.00
12963;BME280;6546;49.882;8.666;2023-02-02T06:15:31;100438.94;;;7.60;100.00
12963;BME280;6546;49.882;8.666;2023-02-02T06:17:59;100442.28;;;7.56;100.00
12963;BME280;6546;49.882;8.666;2023-02-02T06:20:25;100433.88;;;7.63;100.00
12963;BME280;6546;49.882;8.666;2023-02-02T06:22:52;100447.41;;;7.56;100.00
12963;BME280;6546;49.882;8.666;2023-02-02T06:25:19;100446.47;;;7.52;100.00
12963;BME280;6546;49.882;8.666;2023-02-02T06:27:47;100448.94;;;7.47;100.00
12963;BME280;6546;49.882;8.666;2023-02-02T06:30:14;100446.56;;;7.55;100.00
12963;BME280;6546;49.882;8.666;2023-02-02T06:32:41;100450.06;;;7.59;100.00
12963;BME280;6546;49.882;8.666;2023-02-02T06:35:08;100447.50;;;7.59;100.00
12963;BME280;6546;49.882;8.666;2023-02-02T06:37:34;100459.44;;;7.57;100.00
12963;BME280;6546;49.882;8.666;2023-02-02T06:40:05;100450.22;;;7.65;100.00
12963;BME280;6546;49.882;8.666;2023-02-02T06:42:32;100455.22;;;7.59;100.00
12963;BME280;6546;49.882;8.666;2023-02-02T06:44:59;100456.28;;;7.67;100.00
12963;BME280;6546;49.882;8.666;2023-02-02T06:47:26;100458.00;;;7.68;100.00
12963;BME280;6546;49.882;8.666;2023-02-02T06:49:53;100449.06;;;7.54;100.00
12963;BME280;6546;49.882;8.666;2023-02-02T06:52:19;100442.41;;;7.62;100.00
12963;BME280;6546;49.882;8.666;2023-02-02T06:54:46;100437.13;;;7.56;100.00
12963;BME280;6546;49.882;8.666;2023-02-02T06:57:13;100450.09;;;7.60;100.00
12963;BME280;6546;49.882;8.666;2023-02-02T06:59:39;100455.34;;;7.65;100.00
12963;BME280;6546;49.882;8.666;2023-02-02T07:02:15;100458.84;;;7.67;100.00
12963;BME280;6546;49.882;8.666;2023-02-02T07:04:44;100451.13;;;7.67;100.00
12963;BME280;6546;49.882;8.666;2023-02-02T07:07:11;100457.16;;;7.67;100.00
12963;BME280;6546;49.882;8.666;2023-02-02T07:09:38;100458.00;;;7.68;100.00
12963;BME280;6546;49.882;8.666;2023-02-02T07:12:05;100459.75;;;7.69;100.00
12963;BME280;6546;49.882;8.666;2023-02-02T07:14:32;100447.72;;;7.68;100.00
12963;BME280;6546;49.882;8.666;2023-02-02T07:16:58;100455.47;;;7.69;100.00
12963;BME280;6546;49.882;8.666;2023-02-02T07:19:27;100444.28;;;7.67;100.00
12963;BME280;6546;49.882;8.666;2023-02-02T07:21:54;100452.09;;;7.72;100.00
12963;BME280;6546;49.882;8.666;2023-02-02T07:24:24;100451.25;;;7.73;100.00
12963;BME280;6546;49.882;8.666;2023-02-02T07:26:57;100447.84;;;7.74;100.00
12963;BME280;6546;49.882;8.666;2023-02-02T07:29:24;100454.66;;;7.72;100.00
12963;BME280;6546;49.882;8.666;2023-02-02T07:31:51;100452.00;;;7.67;100.00
12963;BME280;6546;49.882;8.666;2023-02-02T07:34:17;100468.31;;;7.68;100.00
12963;BME280;6546;49.882;8.666;2023-02-02T07:36:45;100464.91;;;7.69;100.00
12963;BME280;6546;49.882;8.666;2023-02-02T07:39:12;100466.41;;;7.61;100.00
12963;BME280;6546;49.882;8.666;2023-02-02T07:41:39;100470.81;;;7.66;100.00
12963;BME280;6546;49.882;8.666;2023-02-02T07:44:11;100481.09;;;7.65;100.00
12963;BME280;6546;49.882;8.666;2023-02-02T07:46:39;100487.00;;;7.61;100.00
12963;BME280;6546;49.882;8.666;2023-02-02T07:49:06;100488.97;;;7.71;100.00
12963;BME280;6546;49.882;8.666;2023-02-02T07:51:33;100493.31;;;7.73;100.00
12963;BME280;6546;49.882;8.666;2023-02-02T07:54:01;100511.31;;;7.72;100.00
12963;BME280;6546;49.882;8.666;2023-02-02T07:56:27;100493.31;;;7.73;100.00
12963;BME280;6546;49.882;8.666;2023-02-02T07:58:54;100501.06;;;7.73;100.00
12963;BME280;6546;49.882;8.666;2023-02-02T08:01:22;100504.38;;;7.69;100.00
12963;BME280;6546;49.882;8.666;2023-02-02T08:03:50;100496.75;;;7.74;100.00
12963;BME280;6546;49.882;8.666;2023-02-02T08:06:18;100504.41;;;7.71;100.00
12963;BME280;6546;49.882;8.666;2023-02-02T08:08:47;100518.25;;;7.74;100.00
12963;BME280;6546;49.882;8.666;2023-02-02T08:11:16;100508.78;;;7.73;100.00
12963;BME280;6546;49.882;8.666;2023-02-02T08:13:47;100502.75;;;7.71;100.00
12963;BME280;6546;49.882;8.666;2023-02-02T08:16:14;100506.19;;;7.72;100.00
12963;BME280;6546;49.882;8.666;2023-02-02T08:18:40;100506.38;;;7.81;100.00
12963;BME280;6546;49.882;8.666;2023-02-02T08:21:08;100501.31;;;7.84;100.00
12963;BME280;6546;49.882;8.666;2023-02-02T08:23:35;100513.44;;;7.88;100.00
12963;BME280;6546;49.882;8.666;2023-02-02T08:26:07;100516.78;;;7.84;100.00
12963;BME280;6546;49.882;8.666;2023-02-02T08:28:36;100519.25;;;7.81;100.00
12963;BME280;6546;49.882;8.666;2023-02-02T08:31:04;100521.00;;;7.82;100.00
12963;BME280;6546;49.882;8.666;2023-02-02T08:33:30;100520.16;;;7.83;100.00
12963;BME280;6546;49.882;8.666;2023-02-02T08:35:57;100527.13;;;7.87;100.00
12963;BME280;6546;49.882;8.666;2023-02-02T08:38:25;100524.63;;;7.90;100.00
12963;BME280;6546;49.882;8.666;2023-02-02T08:40:51;100520.41;;;7.92;100.00
12963;BME280;6546;49.882;8.666;2023-02-02T08:43:18;100534.97;;;7.92;100.00
12963;BME280;6546;49.882;8.666;2023-02-02T08:45:46;100529.97;;;7.98;100.00
12963;BME280;6546;49.882;8.666;2023-02-02T08:48:13;100533.28;;;7.92;100.00
12963;BME280;6546;49.882;8.666;2023-02-02T08:50:41;100545.25;;;7.92;100.00
12963;BME280;6546;49.882;8.666;2023-02-02T08:53:08;100544.41;;;7.91;100.00
12963;BME280;6546;49.882;8.666;2023-02-02T08:55:34;100537.81;;;8.03;100.00
12963;BME280;6546;49.882;8.666;2023-02-02T08:58:01;100543.69;;;7.97;100.00
12963;BME280;6546;49.882;8.666;2023-02-02T09:00:28;100546.28;;;7.98;100.00
12963;BME280;6546;49.882;8.666;2023-02-02T09:02:56;100543.78;;;8.02;100.00
12963;BME280;6546;49.882;8.666;2023-02-02T09:05:22;100551.53;;;8.02;100.00
12963;BME280;6546;49.882;8.666;2023-02-02T09:07:49;100545.41;;;7.96;100.00
12963;BME280;6546;49.882;8.666;2023-02-02T09:10:16;100546.41;;;8.05;100.00
12963;BME280;6546;49.882;8.666;2023-02-02T09:12:42;100552.34;;;8.00;100.00
12963;BME280;6546;49.882;8.666;2023-02-02T09:15:09;100543.81;;;8.03;100.00
12963;BME280;6546;49.882;8.666;2023-02-02T09:17:36;100545.56;;;8.04;100.00
12963;BME280;6546;49.882;8.666;2023-02-02T09:20:05;100562.03;;;8.11;100.00
12963;BME280;6546;49.882;8.666;2023-02-02T09:22:32;100556.91;;;8.12;100.00
12963;BME280;6546;49.882;8.666;2023-02-02T09:24:58;100554.22;;;8.08;100.00
12963;BME280;6546;49.882;8.666;2023-02-02T09:27:25;100550.88;;;8.12;100.00
12963;BME280;6546;49.882;8.666;2023-02-02T09:29:52;100550.16;;;8.17;100.00
12963;BME280;6546;49.882;8.666;2023-02-02T09:32:18;100552.63;;;8.13;100.00
12963;BME280;6546;49.882;8.666;2023-02-02T09:34:45;100559.66;;;8.18;100.00
12963;BME280;6546;49.882;8.666;2023-02-02T09:37:13;100551.81;;;8.14;100.00
12963;BME280;6546;49.882;8.666;2023-02-02T09:39:39;100558.78;;;8.18;100.00
12963;BME280;6546;49.882;8.666;2023-02-02T09:42:24;100556.22;;;8.19;100.00
12963;BME280;6546;49.882;8.666;2023-02-02T09:45:01;100559.66;;;8.20;100.00
12963;BME280;6546;49.882;8.666;2023-02-02T09:47:46;100566.44;;;8.16;100.00
12963;BME280;6546;49.882;8.666;2023-02-02T09:50:18;100567.47;;;8.23;100.00
12963;BME280;6546;49.882;8.666;2023-02-02T09:52:53;100565.75;;;8.23;100.00
12963;BME280;6546;49.882;8.666;2023-02-02T09:55:27;100575.13;;;8.20;100.00
12963;BME280;6546;49.882;8.666;2023-02-02T09:57:59;100582.09;;;8.24;100.00
12963;BME280;6546;49.882;8.666;2023-02-02T10:00:31;100580.53;;;8.31;100.00
12963;BME280;6546;49.882;8.666;2023-02-02T10:03:02;100588.97;;;8.23;100.00
12963;BME280;6546;49.882;8.666;2023-02-02T10:05:41;100595.00;;;8.24;100.00
12963;BME280;6546;49.882;8.666;2023-02-02T10:08:17;100596.81;;;8.30;100.00
12963;BME280;6546;49.882;8.666;2023-02-02T10:10:47;100598.69;;;8.35;100.00
12963;BME280;6546;49.882;8.666;2023-02-02T10:13:19;100606.44;;;8.35;100.00
12963;BME280;6546;49.882;8.666;2023-02-02T10:15:52;100601.59;;;8.47;100.00
12963;BME280;6546;49.882;8.666;2023-02-02T10:18:33;100605.81;;;8.45;100.00
12963;BME280;6546;49.882;8.666;2023-02-02T10:21:05;100611.13;;;8.52;100.00
12963;BME280;6546;49.882;8.666;2023-02-02T10:23:35;100611.13;;;8.52;100.00
12963;BME280;6546;49.882;8.666;2023-02-02T10:26:07;100609.31;;;8.47;100.00
12963;BME280;6546;49.882;8.666;2023-02-02T10:28:41;100618.75;;;8.47;100.00
12963;BME280;6546;49.882;8.666;2023-02-02T10:31:16;100616.22;;;8.48;100.00
12963;BME280;6546;49.882;8.666;2023-02-02T10:33:54;100612.72;;;8.46;100.00
12963;BME280;6546;49.882;8.666;2023-02-02T10:36:32;100612.78;;;8.49;100.00
12963;BME280;6546;49.882;8.666;2023-02-02T10:39:09;100610.22;;;8.51;100.00
12963;BME280;6546;49.882;8.666;2023-02-02T10:41:44;100616.13;;;8.45;100.00
12963;BME280;6546;49.882;8.666;2023-02-02T10:44:23;100623.94;;;8.48;100.00
12963;BME280;6546;49.882;8.666;2023-02-02T10:46:54;100613.00;;;8.59;100.00
12963;BME280;6546;49.882;8.666;2023-02-02T10:49:26;100613.72;;;8.53;100.00
12963;BME280;6546;49.882;8.666;2023-02-02T10:51:58;100619.94;;;8.63;100.00
12963;BME280;6546;49.882;8.666;2023-02-02T10:54:39;100620.81;;;8.63;100.00
12963;BME280;6546;49.882;8.666;2023-02-02T10:57:13;100619.25;;;8.70;100.00
12963;BME280;6546;49.882;8.666;2023-02-02T10:59:47;100619.25;;;8.68;100.00
12963;BME280;6546;49.882;8.666;2023-02-02T11:02:18;100610.59;;;8.68;100.00
12963;BME280;6546;49.882;8.666;2023-02-02T11:04:45;100615.00;;;8.72;100.00
12963;BME280;6546;49.882;8.666;2023-02-02T11:07:40;100622.03;;;8.79;100.00
12963;BME280;6546;49.882;8.666;2023-02-02T11:10:09;100624.59;;;8.78;100.00
12963;BME280;6546;49.882;8.666;2023-02-02T11:12:39;100623.56;;;8.71;100.00
12963;BME280;6546;49.882;8.666;2023-02-02T11:15:22;100626.06;;;8.66;100.00
12963;BME280;6546;49.882;8.666;2023-02-02T11:17:49;100616.59;;;8.67;100.00
12963;BME280;6546;49.882;8.666;2023-02-02T11:20:22;100615.00;;;8.72;100.00
12963;BME280;6546;49.882;8.666;2023-02-02T11:22:58;100623.66;;;8.74;100.00
12963;BME280;6546;49.882;8.666;2023-02-02T11:25:29;100621.84;;;8.70;100.00
12963;BME280;6546;49.882;8.666;2023-02-02T11:28:00;100620.97;;;8.69;100.00
12963;BME280;6546;49.882;8.666;2023-02-02T11:30:30;100618.41;;;8.71;100.00
12963;BME280;6546;49.882;8.666;2023-02-02T11:32:57;100622.72;;;8.70;100.00
12963;BME280;6546;49.882;8.666;2023-02-02T11:35:25;100613.41;;;8.77;100.00
12963;BME280;6546;49.882;8.666;2023-02-02T11:37:56;100610.84;;;8.79;100.00
12963;BME280;6546;49.882;8.666;2023-02-02T11:40:30;100616.94;;;8.82;100.00
12963;BME280;6546;49.882;8.666;2023-02-02T11:42:59;100619.59;;;8.85;100.00
12963;BME280;6546;49.882;8.666;2023-02-02T11:45:32;100613.59;;;8.86;100.00
12963;BME280;6546;49.882;8.666;2023-02-02T11:48:03;100610.25;;;8.90;100.00
12963;BME280;6546;49.882;8.666;2023-02-02T11:50:32;100606.72;;;8.87;100.00
12963;BME280;6546;49.882;8.666;2023-02-02T11:52:58;100608.50;;;8.89;100.00
12963;BME280;6546;49.882;8.666;2023-02-02T11:55:28;100608.59;;;8.94;100.00
12963;BME280;6546;49.882;8.666;2023-02-02T11:58:09;100619.63;;;8.87;100.00
12963;BME280;6546;49.882;8.666;2023-02-02T12:00:45;100603.38;;;8.92;100.00
12963;BME280;6546;49.882;8.666;2023-02-02T12:03:22;100606.63;;;8.82;100.00
12963;BME280;6546;49.882;8.666;2023-02-02T12:05:49;100610.16;;;8.87;100.00
12963;BME280;6546;49.882;8.666;2023-02-02T12:08:16;100608.44;;;8.88;100.00
12963;BME280;6546;49.882;8.666;2023-02-02T12:10:49;100619.69;;;8.90;100.00
12963;BME280;6546;49.882;8.666;2023-02-02T12:13:25;100614.69;;;8.97;100.00
12963;BME280;6546;49.882;8.666;2023-02-02T12:16:01;100609.53;;;8.97;100.00
12963;BME280;6546;49.882;8.666;2023-02-02T12:18:39;100610.34;;;8.96;100.00
12963;BME280;6546;49.882;8.666;2023-02-02T12:21:15;100604.41;;;8.99;100.00
12963;BME280;6546;49.882;8.666;2023-02-02T12:23:55;100609.72;;;9.07;100.00
12963;BME280;6546;49.882;8.666;2023-02-02T12:26:27;100621.00;;;9.13;100.00
12963;BME280;6546;49.882;8.666;2023-02-02T12:31:52;100612.47;;;9.14;100.00
12963;BME280;6546;49.882;8.666;2023-02-02T12:34:29;100618.44;;;9.13;100.00
12963;BME280;6546;49.882;8.666;2023-02-02T12:37:02;100608.06;;;9.10;100.00
12963;BME280;6546;49.882;8.666;2023-02-02T12:39:43;100607.19;;;9.10;100.00
12963;BME280;6546;49.882;8.666;2023-02-02T12:42:24;100619.25;;;9.11;100.00
12963;BME280;6546;49.882;8.666;2023-02-02T12:48:09;100600.53;;;9.21;100.00
12963;BME280;6546;49.882;8.666;2023-02-02T12:50:52;100600.50;;;9.19;100.00
12963;BME280;6546;49.882;8.666;2023-02-02T12:53:34;100596.22;;;9.21;100.00
12963;BME280;6546;49.882;8.666;2023-02-02T12:56:08;100602.31;;;9.25;100.00
12963;BME280;6546;49.882;8.666;2023-02-02T12:58:45;100587.75;;;9.27;100.00
12963;BME280;6546;49.882;8.666;2023-02-02T13:01:31;100601.38;;;9.20;100.00
12963;BME280;6546;49.882;8.666;2023-02-02T13:04:20;100584.19;;;9.22;100.00
12963;BME280;6546;49.882;8.666;2023-02-02T13:07:03;100591.28;;;9.34;100.00
12963;BME280;6546;49.882;8.666;2023-02-02T13:09:39;100599.06;;;9.35;100.00
12963;BME280;6546;49.882;8.666;2023-02-02T13:12:13;100604.44;;;9.47;100.00
12963;BME280;6546;49.882;8.666;2023-02-02T13:14:46;100602.72;;;9.46;100.00
12963;BME280;6546;49.882;8.666;2023-02-02T13:17:18;100601.09;;;9.52;100.00
12963;BME280;6546;49.882;8.666;2023-02-02T13:19:49;100610.59;;;9.53;100.00
12963;BME280;6546;49.882;8.666;2023-02-02T13:22:21;100601.00;;;9.45;100.00
12963;BME280;6546;49.882;8.666;2023-02-02T13:24:52;100605.44;;;9.54;100.00